Time;durP1;ratioP1;P1;durP2;ratioP2;P2;SDS_P1;SDS_P2;PMS_P1;PMS_P2;Temp;Humidity;BMP_temperature;BMP_pressure;BME280_temperature;BME280_humidity;BME280_pressure;Samples;Min_cycle;Max_cycle;Signal;HPM_P1;HPM_P2
2022/07/18 00:02:22;;;;;;;61.85;51.33;;;26.20;50.90;;;;;;4997388;27;95635;-52
2022/07/18 00:04:48;;;;;;;62.53;51.42;;;26.20;50.90;;;;;;4999760;27;99280;-51
2022/07/18 00:07:13;;;;;;;62.35;51.35;;;26.20;51.00;;;;;;5010207;27;97237;-52
2022/07/18 00:09:40;;;;;;;61.80;51.15;;;26.20;51.00;;;;;;5008615;27;95498;-51
2022/07/18 00:12:07;;;;;;;61.50;51.33;;;26.20;50.90;;;;;;5000784;27;94725;-55
2022/07/18 00:14:33;;;;;;;62.47;51.15;;;26.20;50.90;;;;;;5003005;27;97366;-53
2022/07/18 00:16:59;;;;;;;61.70;51.28;;;26.20;51.00;;;;;;4977662;27;97295;-56
2022/07/18 00:19:27;;;;;;;61.88;51.17;;;26.20;51.00;;;;;;4995445;27;95245;-55
2022/07/18 00:21:52;;;;;;;61.63;51.25;;;26.20;51.00;;;;;;5014718;27;94516;-52
2022/07/18 00:24:18;;;;;;;62.05;51.05;;;26.20;51.10;;;;;;5014061;27;98815;-56
2022/07/18 00:26:43;;;;;;;61.75;51.05;;;26.20;51.10;;;;;;5003530;27;95534;-56
2022/07/18 00:29:09;;;;;;;61.90;51.15;;;26.10;51.00;;;;;;5005145;27;96244;-54
2022/07/18 00:31:36;;;;;;;61.50;51.05;;;26.20;51.10;;;;;;5013180;27;95922;-55
2022/07/18 00:34:02;;;;;;;62.55;51.30;;;26.10;51.00;;;;;;5021307;27;96004;-53
2022/07/18 00:36:29;;;;;;;61.72;51.35;;;26.10;51.00;;;;;;5002986;27;99274;-56
2022/07/18 00:38:55;;;;;;;61.50;51.33;;;26.20;51.10;;;;;;5004228;27;97134;-53
2022/07/18 00:41:21;;;;;;;61.38;51.10;;;26.20;51.10;;;;;;5013047;27;96036;-51
2022/07/18 00:43:47;;;;;;;62.15;51.22;;;26.10;51.00;;;;;;5007791;27;95488;-56
2022/07/18 00:46:12;;;;;;;62.35;51.05;;;26.10;51.00;;;;;;5006138;27;95138;-56
2022/07/18 00:48:39;;;;;;;61.70;51.13;;;26.10;51.00;;;;;;5011406;27;98728;-54
2022/07/18 00:51:05;;;;;;;61.35;50.85;;;26.00;51.00;;;;;;5009181;27;96611;-53
2022/07/18 00:53:31;;;;;;;61.33;51.08;;;26.00;51.00;;;;;;5006677;27;101520;-54
2022/07/18 00:55:57;;;;;;;61.83;50.95;;;26.00;51.00;;;;;;4998639;27;95388;-53
2022/07/18 00:58:23;;;;;;;61.65;51.05;;;26.00;51.00;;;;;;5013271;27;95695;-52
2022/07/18 01:03:33;;;;;;;61.63;51.05;;;26.00;51.00;;;;;;5007031;27;95144;-56
2022/07/18 01:05:59;;;;;;;61.17;50.60;;;26.00;51.00;;;;;;5002094;27;95884;-51
2022/07/18 01:08:24;;;;;;;61.80;51.03;;;26.00;51.10;;;;;;5009320;27;95628;-54
2022/07/18 01:10:53;;;;;;;61.30;50.80;;;26.00;51.10;;;;;;5011694;27;96136;-53
2022/07/18 01:13:20;;;;;;;61.03;50.67;;;26.00;51.10;;;;;;5018216;27;95907;-52
2022/07/18 01:15:46;;;;;;;60.92;50.65;;;26.00;51.10;;;;;;5010989;27;102727;-53
2022/07/18 01:18:11;;;;;;;61.22;50.83;;;26.00;51.20;;;;;;5011540;27;96134;-54
2022/07/18 01:20:38;;;;;;;61.50;51.17;;;26.00;51.20;;;;;;5006601;27;95958;-55
2022/07/18 01:23:04;;;;;;;61.75;50.75;;;26.00;51.20;;;;;;4998478;27;97541;-56
2022/07/18 01:25:29;;;;;;;61.03;50.78;;;25.90;51.20;;;;;;5002644;27;95485;-51
2022/07/18 01:27:56;;;;;;;61.25;50.70;;;25.90;51.20;;;;;;5014459;27;98609;-57
2022/07/18 01:30:23;;;;;;;61.58;50.80;;;25.90;51.20;;;;;;5018130;27;95409;-54
2022/07/18 01:32:55;;;;;;;60.95;50.83;;;25.90;51.30;;;;;;5007370;27;95064;-56
2022/07/18 01:35:22;;;;;;;60.80;50.63;;;25.90;51.30;;;;;;4998136;27;95104;-53
2022/07/18 01:37:55;;;;;;;61.00;50.70;;;25.90;51.30;;;;;;5008200;27;97083;-54
2022/07/18 01:40:21;;;;;;;61.55;50.85;;;25.90;51.30;;;;;;4990239;27;95509;-56
2022/07/18 01:42:47;;;;;;;60.70;50.67;;;25.90;51.30;;;;;;5006300;27;102292;-53
2022/07/18 01:45:13;;;;;;;61.85;50.80;;;25.90;51.30;;;;;;5002257;27;99703;-53
2022/07/18 01:47:39;;;;;;;61.05;50.97;;;25.90;51.30;;;;;;5014647;27;95651;-52
2022/07/18 01:50:06;;;;;;;61.13;50.72;;;25.80;51.30;;;;;;5006732;27;95621;-56
2022/07/18 01:52:31;;;;;;;60.85;50.67;;;25.90;51.40;;;;;;5005867;27;100064;-53
2022/07/18 01:54:57;;;;;;;60.85;50.63;;;25.80;51.40;;;;;;4998861;27;95541;-51
2022/07/18 01:57:23;;;;;;;60.75;50.58;;;25.80;51.50;;;;;;5005443;27;95212;-53
2022/07/18 01:59:49;;;;;;;60.60;50.63;;;25.80;51.40;;;;;;4994848;27;95862;-54
2022/07/18 02:02:15;;;;;;;62.00;50.72;;;25.80;51.40;;;;;;4988823;27;97179;-56
2022/07/18 02:05:00;;;;;;;60.78;50.78;;;25.80;51.40;;;;;;5013815;27;95852;-49
2022/07/18 02:07:40;;;;;;;60.67;50.60;;;25.80;51.50;;;;;;5011252;27;95993;-56
2022/07/18 02:10:10;;;;;;;60.78;50.63;;;25.80;51.50;;;;;;5008742;27;97076;-56
2022/07/18 02:12:37;;;;;;;60.73;50.70;;;25.80;51.50;;;;;;4999893;27;99885;-56
2022/07/18 02:15:04;;;;;;;60.72;50.55;;;25.80;51.60;;;;;;5003611;27;97142;-55
2022/07/18 02:17:30;;;;;;;60.60;50.58;;;25.80;51.60;;;;;;5002631;27;97319;-53
2022/07/18 02:19:56;;;;;;;60.83;50.47;;;25.80;51.60;;;;;;5006634;27;95579;-54
2022/07/18 02:22:22;;;;;;;61.53;50.55;;;25.80;51.60;;;;;;4999649;27;99135;-49
2022/07/18 02:24:48;;;;;;;60.72;50.55;;;25.80;51.60;;;;;;5019878;27;95251;-55
2022/07/18 02:27:14;;;;;;;61.67;50.72;;;25.80;51.70;;;;;;5004153;27;96255;-54
2022/07/18 02:29:40;;;;;;;60.30;50.38;;;25.70;51.60;;;;;;5005752;27;95205;-53
2022/07/18 02:32:06;;;;;;;60.75;50.75;;;25.80;51.70;;;;;;5004178;27;96073;-53
2022/07/18 02:34:32;;;;;;;60.72;50.70;;;25.70;51.70;;;;;;5002598;27;97864;-55
2022/07/18 02:36:58;;;;;;;60.58;50.47;;;25.70;51.70;;;;;;5013471;27;97395;-56
2022/07/18 02:39:24;;;;;;;60.63;50.45;;;25.70;51.70;;;;;;4993429;27;96755;-55
2022/07/18 02:41:49;;;;;;;60.17;50.42;;;25.60;51.70;;;;;;4997844;27;95119;-56
2022/07/18 02:44:15;;;;;;;60.45;50.35;;;25.60;51.70;;;;;;5007862;27;96444;-54
2022/07/18 02:46:41;;;;;;;60.28;50.38;;;25.60;51.70;;;;;;5010483;27;100031;-54
2022/07/18 02:49:07;;;;;;;60.53;50.42;;;25.70;51.90;;;;;;5002027;27;95345;-54
2022/07/18 02:51:32;;;;;;;60.88;50.55;;;25.60;51.80;;;;;;5003955;27;95443;-54
2022/07/18 02:53:58;;;;;;;60.60;50.55;;;25.60;51.80;;;;;;5005686;27;96650;-54
2022/07/18 02:56:24;;;;;;;60.38;50.38;;;25.60;51.90;;;;;;4993440;27;99128;-50
2022/07/18 02:58:49;;;;;;;60.28;50.42;;;25.60;51.90;;;;;;5002455;27;94811;-54
2022/07/18 03:01:15;;;;;;;60.35;50.42;;;25.60;51.90;;;;;;5010633;27;95727;-56
2022/07/18 03:03:40;;;;;;;60.33;50.55;;;25.60;52.00;;;;;;5006889;27;98450;-56
2022/07/18 03:06:06;;;;;;;61.67;50.65;;;25.60;52.00;;;;;;5011823;27;99941;-54
2022/07/18 03:08:32;;;;;;;60.38;50.45;;;25.60;52.00;;;;;;5002550;27;95277;-56
2022/07/18 03:10:57;;;;;;;60.45;50.45;;;25.50;52.00;;;;;;5007826;27;96917;-56
2022/07/18 03:13:23;;;;;;;60.15;50.35;;;25.50;52.00;;;;;;5002345;27;96137;-54
2022/07/18 03:15:49;;;;;;;60.20;50.35;;;25.50;52.10;;;;;;4992863;27;96413;-54
2022/07/18 03:18:14;;;;;;;60.60;50.55;;;25.50;52.20;;;;;;5000881;27;96793;-55
2022/07/18 03:20:40;;;;;;;60.85;50.42;;;25.50;52.10;;;;;;5007033;27;97133;-55
2022/07/18 03:23:07;;;;;;;60.15;50.35;;;25.50;52.20;;;;;;5010865;27;96506;-56
2022/07/18 03:25:32;;;;;;;60.83;50.42;;;25.40;52.60;;;;;;4998239;27;97069;-52
2022/07/18 03:27:58;;;;;;;60.13;50.35;;;25.40;52.10;;;;;;5002952;27;94880;-56
2022/07/18 03:30:24;;;;;;;60.70;50.53;;;25.40;52.20;;;;;;5000241;27;95425;-55
2022/07/18 03:32:49;;;;;;;60.13;50.30;;;25.40;52.20;;;;;;5007242;27;96391;-53
2022/07/18 03:35:15;;;;;;;60.13;50.40;;;25.40;52.10;;;;;;5001126;27;95127;-56
2022/07/18 03:37:41;;;;;;;60.22;50.13;;;25.40;52.10;;;;;;5012783;27;101317;-54
2022/07/18 03:40:07;;;;;;;60.38;50.28;;;25.40;52.20;;;;;;5010660;27;95675;-53
2022/07/18 03:42:36;;;;;;;60.22;50.28;;;25.40;52.20;;;;;;4992042;27;95800;-54
2022/07/18 03:45:01;;;;;;;60.75;50.20;;;25.40;52.20;;;;;;5000619;27;97187;-57
2022/07/18 03:47:27;;;;;;;59.85;50.25;;;25.40;52.20;;;;;;5007970;27;94770;-55
2022/07/18 03:49:52;;;;;;;60.10;50.30;;;25.40;52.20;;;;;;4997340;27;97051;-56
2022/07/18 03:52:18;;;;;;;60.00;50.20;;;25.40;52.30;;;;;;5013841;27;97853;-54
2022/07/18 03:54:44;;;;;;;61.13;50.50;;;25.30;52.30;;;;;;5004010;27;97105;-56
2022/07/18 03:57:09;;;;;;;60.67;50.30;;;25.40;52.30;;;;;;5002194;27;98000;-54
2022/07/18 03:59:35;;;;;;;59.78;50.10;;;25.30;52.30;;;;;;4995942;27;96401;-54
2022/07/18 04:02:01;;;;;;;60.58;50.63;;;25.30;52.30;;;;;;4998832;27;102853;-55
2022/07/18 04:04:27;;;;;;;59.63;50.03;;;25.30;52.30;;;;;;4988658;27;100410;-55
2022/07/18 04:06:52;;;;;;;59.72;50.17;;;25.40;52.30;;;;;;5005429;27;100030;-53
2022/07/18 04:09:18;;;;;;;59.92;50.22;;;25.30;52.20;;;;;;4999663;27;96335;-56
2022/07/18 04:11:44;;;;;;;60.63;50.33;;;25.30;52.30;;;;;;5007211;27;95865;-53
2022/07/18 04:14:09;;;;;;;60.63;50.45;;;25.30;52.30;;;;;;5000137;27;100835;-53
2022/07/18 04:16:35;;;;;;;60.05;50.35;;;25.30;52.30;;;;;;5003338;27;95151;-53
2022/07/18 04:19:00;;;;;;;59.92;50.15;;;25.30;52.30;;;;;;5005824;27;96894;-56
2022/07/18 04:21:26;;;;;;;60.40;50.30;;;25.30;52.30;;;;;;4997390;27;95924;-57
2022/07/18 04:23:52;;;;;;;60.00;50.22;;;25.30;52.30;;;;;;5006008;27;98451;-57
2022/07/18 04:26:18;;;;;;;60.60;50.25;;;25.30;52.30;;;;;;5000468;27;94405;-56
2022/07/18 04:28:44;;;;;;;60.33;50.25;;;25.30;52.30;;;;;;5000335;27;96045;-53
2022/07/18 04:31:10;;;;;;;60.20;50.10;;;25.30;52.20;;;;;;4987533;27;96647;-53
2022/07/18 04:33:35;;;;;;;59.92;50.03;;;25.30;52.20;;;;;;5005160;27;96544;-57
2022/07/18 04:36:01;;;;;;;59.88;50.15;;;25.30;52.30;;;;;;4998928;27;102162;-53
2022/07/18 04:38:30;;;;;;;60.10;50.17;;;25.30;52.40;;;;;;5019666;27;95484;-52
2022/07/18 04:40:56;;;;;;;60.67;50.30;;;25.30;52.40;;;;;;5002496;27;100648;-51
2022/07/18 04:43:21;;;;;;;60.05;50.25;;;25.20;52.30;;;;;;5001511;27;100421;-56
2022/07/18 04:45:47;;;;;;;60.20;50.35;;;25.30;52.40;;;;;;4997964;27;97352;-55
2022/07/18 04:48:13;;;;;;;59.75;50.03;;;25.30;52.40;;;;;;5008426;27;95228;-54
2022/07/18 04:50:38;;;;;;;59.95;50.00;;;25.30;52.40;;;;;;5010207;27;95111;-56
2022/07/18 04:53:04;;;;;;;60.35;50.25;;;25.30;52.40;;;;;;4996658;27;95022;-57
2022/07/18 04:55:29;;;;;;;60.55;50.25;;;25.20;52.40;;;;;;5010203;27;98463;-55
2022/07/18 04:57:55;;;;;;;60.20;50.45;;;25.20;52.40;;;;;;4998623;27;102175;-57
2022/07/18 05:00:24;;;;;;;59.83;50.33;;;25.20;52.40;;;;;;4994141;27;96141;-56
2022/07/18 05:02:52;;;;;;;60.83;50.53;;;25.30;52.40;;;;;;4996743;27;100873;-56
2022/07/18 05:05:19;;;;;;;59.88;50.03;;;25.30;52.40;;;;;;5013488;27;95947;-53
2022/07/18 05:07:46;;;;;;;59.92;50.20;;;25.30;52.30;;;;;;5005721;27;95091;-54
2022/07/18 05:10:13;;;;;;;59.67;50.08;;;25.30;52.20;;;;;;5002266;27;101866;-56
2022/07/18 05:12:42;;;;;;;59.95;50.13;;;25.30;52.20;;;;;;5006558;27;96055;-55
2022/07/18 05:15:10;;;;;;;60.35;50.17;;;25.30;52.20;;;;;;5012829;27;100303;-56
2022/07/18 05:17:37;;;;;;;59.95;50.25;;;25.30;52.10;;;;;;4989097;27;95897;-56
2022/07/18 05:20:08;;;;;;;59.80;50.20;;;25.30;52.10;;;;;;5001756;27;96806;-56
2022/07/18 05:22:34;;;;;;;60.10;50.45;;;25.40;52.00;;;;;;5003107;27;101773;-56
2022/07/18 05:25:00;;;;;;;60.60;50.13;;;25.40;52.10;;;;;;5006281;27;95192;-53
2022/07/18 05:27:26;;;;;;;60.75;50.25;;;25.30;51.60;;;;;;4996197;27;100460;-56
2022/07/18 05:29:52;;;;;;;60.42;50.20;;;25.40;52.60;;;;;;4998489;27;97816;-53
2022/07/18 05:32:17;;;;;;;60.42;50.30;;;25.40;52.00;;;;;;5013433;27;101041;-55
2022/07/18 05:34:43;;;;;;;61.42;50.42;;;25.40;51.90;;;;;;5012673;27;97203;-55
2022/07/18 05:37:09;;;;;;;60.42;50.53;;;25.40;51.90;;;;;;4993720;27;95362;-49
2022/07/18 05:39:35;;;;;;;59.70;50.05;;;25.40;51.90;;;;;;5004824;27;98268;-56
2022/07/18 05:42:02;;;;;;;59.65;50.20;;;25.40;51.90;;;;;;5011612;27;95363;-51
2022/07/18 05:44:27;;;;;;;60.97;50.08;;;25.40;51.80;;;;;;5001612;27;95092;-52
2022/07/18 05:46:53;;;;;;;60.13;50.45;;;25.40;51.80;;;;;;5002540;27;96113;-54
2022/07/18 05:49:19;;;;;;;61.33;50.45;;;25.40;51.80;;;;;;5008192;27;95887;-55
2022/07/18 05:51:45;;;;;;;59.88;50.28;;;25.40;51.90;;;;;;5011400;27;94633;-55
2022/07/18 05:54:11;;;;;;;60.88;50.35;;;25.40;51.80;;;;;;5004736;27;96228;-53
2022/07/18 05:56:37;;;;;;;62.03;50.33;;;25.40;51.80;;;;;;4987383;27;96710;-56
2022/07/18 05:59:02;;;;;;;60.90;50.30;;;25.40;51.90;;;;;;5003455;27;95191;-56
2022/07/18 06:01:28;;;;;;;60.67;50.42;;;25.40;51.80;;;;;;4995898;27;100612;-52
2022/07/18 06:03:54;;;;;;;61.22;50.15;;;25.50;52.00;;;;;;4996406;27;96039;-54
2022/07/18 06:06:19;;;;;;;60.70;50.50;;;25.40;51.90;;;;;;5002852;27;95620;-55
2022/07/18 06:08:45;;;;;;;60.13;50.17;;;25.50;52.00;;;;;;5003302;27;96490;-49
2022/07/18 06:11:11;;;;;;;60.88;50.75;;;25.50;51.90;;;;;;5019322;27;96720;-56
2022/07/18 06:13:38;;;;;;;61.13;50.50;;;25.50;51.90;;;;;;4981979;27;95905;-54
2022/07/18 06:16:06;;;;;;;61.15;50.65;;;25.50;51.90;;;;;;5008113;27;96066;-51
2022/07/18 06:18:32;;;;;;;60.78;50.70;;;25.50;51.90;;;;;;4997155;27;99555;-52
2022/07/18 06:20:58;;;;;;;60.95;50.55;;;25.50;51.90;;;;;;4997230;27;95190;-56
2022/07/18 06:23:24;;;;;;;61.67;50.75;;;25.50;51.90;;;;;;5006592;27;97944;-55
2022/07/18 06:25:50;;;;;;;61.08;50.28;;;25.50;51.80;;;;;;5005696;27;95609;-56
2022/07/18 06:28:16;;;;;;;62.13;50.60;;;25.50;51.80;;;;;;4999750;27;98745;-52
2022/07/18 06:30:41;;;;;;;60.60;50.53;;;25.50;51.80;;;;;;5000238;27;96611;-53
2022/07/18 06:33:07;;;;;;;60.60;50.45;;;25.50;51.90;;;;;;5005803;27;95899;-56
2022/07/18 06:35:34;;;;;;;61.22;50.53;;;25.60;51.90;;;;;;5009215;27;96933;-52
2022/07/18 06:38:00;;;;;;;60.38;50.40;;;25.60;51.90;;;;;;4999567;27;95771;-54
2022/07/18 06:40:26;;;;;;;62.83;50.42;;;25.70;51.90;;;;;;4998966;27;95585;-48
2022/07/18 06:42:52;;;;;;;61.05;50.55;;;25.70;51.90;;;;;;5009388;27;95666;-52
2022/07/18 06:45:18;;;;;;;61.05;50.50;;;25.80;51.90;;;;;;4996737;27;95850;-50
2022/07/18 06:47:44;;;;;;;61.45;50.42;;;25.70;51.80;;;;;;4996569;27;97308;-53
2022/07/18 06:50:14;;;;;;;60.97;50.88;;;25.70;51.80;;;;;;5001733;27;96778;-50
2022/07/18 06:52:41;;;;;;;61.28;50.58;;;25.70;51.70;;;;;;5014434;27;97764;-50
2022/07/18 06:55:08;;;;;;;62.80;50.78;;;25.70;51.80;;;;;;5005417;27;97262;-55
2022/07/18 06:57:34;;;;;;;62.25;50.80;;;25.70;51.70;;;;;;5007224;27;96244;-56
2022/07/18 06:59:59;;;;;;;62.20;50.88;;;25.70;51.70;;;;;;5005218;27;97539;-53
2022/07/18 07:02:25;;;;;;;62.38;50.95;;;25.70;51.70;;;;;;5006696;27;98158;-52
2022/07/18 07:04:51;;;;;;;61.53;50.75;;;25.70;51.70;;;;;;5005316;27;96775;-54
2022/07/18 07:07:17;;;;;;;63.13;50.88;;;25.80;51.70;;;;;;5014277;27;96526;-52
2022/07/18 07:09:42;;;;;;;63.17;51.10;;;25.70;51.60;;;;;;5002476;27;95754;-51
2022/07/18 07:12:09;;;;;;;62.42;50.97;;;25.70;51.60;;;;;;4987750;27;101203;-53
2022/07/18 07:14:36;;;;;;;64.60;51.30;;;25.70;51.60;;;;;;4991314;27;98482;-51
2022/07/18 07:17:02;;;;;;;62.40;51.05;;;25.70;51.60;;;;;;5002626;27;95088;-49
2022/07/18 07:19:28;;;;;;;63.15;51.33;;;25.70;51.50;;;;;;4984807;27;95879;-56
2022/07/18 07:21:55;;;;;;;68.38;51.67;;;25.70;51.50;;;;;;4981181;27;97711;-57
2022/07/18 07:24:20;;;;;;;63.25;51.42;;;25.60;48.50;;;;;;5007051;27;100397;-55
2022/07/18 07:26:46;;;;;;;66.00;51.35;;;25.40;48.10;;;;;;4998169;27;96240;-53
2022/07/18 07:29:12;;;;;;;65.43;51.17;;;25.40;48.20;;;;;;4996469;27;95704;-55
2022/07/18 07:31:38;;;;;;;62.38;51.42;;;25.20;48.50;;;;;;5001395;27;96396;-56
2022/07/18 07:34:04;;;;;;;64.43;51.33;;;25.10;48.30;;;;;;5003125;27;95224;-55
2022/07/18 07:36:30;;;;;;;66.45;51.25;;;25.10;48.40;;;;;;5001554;27;96514;-56
2022/07/18 07:38:56;;;;;;;61.55;51.35;;;25.10;47.70;;;;;;4995057;27;97172;-57
2022/07/18 07:41:22;;;;;;;62.42;51.42;;;25.20;47.90;;;;;;5013278;27;95488;-57
2022/07/18 07:43:48;;;;;;;62.83;51.60;;;25.20;48.30;;;;;;5004458;27;96306;-56
2022/07/18 07:46:14;;;;;;;63.10;51.13;;;25.20;47.50;;;;;;5004682;27;95249;-56
2022/07/18 07:48:39;;;;;;;67.78;51.30;;;25.20;47.60;;;;;;4999685;27;101548;-56
2022/07/18 07:51:05;;;;;;;67.15;51.67;;;25.30;47.50;;;;;;5000637;27;99848;-56
2022/07/18 07:53:31;;;;;;;64.50;51.80;;;25.20;47.90;;;;;;5006618;27;99040;-56
2022/07/18 07:55:57;;;;;;;64.15;51.28;;;25.20;48.40;;;;;;5004938;27;98148;-55
2022/07/18 07:58:23;;;;;;;63.08;51.50;;;25.20;48.70;;;;;;5007307;27;95550;-54
2022/07/18 08:00:48;;;;;;;65.97;51.65;;;25.30;48.70;;;;;;4999951;27;97212;-57
2022/07/18 08:03:14;;;;;;;62.80;51.55;;;25.30;48.60;;;;;;4999973;27;97863;-56
2022/07/18 08:05:49;;;;;;;63.10;51.38;;;25.30;48.80;;;;;;4995018;27;96416;-55
2022/07/18 08:08:15;;;;;;;63.90;51.33;;;25.40;48.90;;;;;;4982320;27;95235;-57
2022/07/18 08:10:41;;;;;;;63.33;51.70;;;25.30;48.80;;;;;;4981490;27;95614;-57
2022/07/18 08:13:07;;;;;;;66.20;51.50;;;25.40;49.00;;;;;;4995873;27;97338;-56
2022/07/18 08:15:33;;;;;;;65.55;51.58;;;25.50;49.20;;;;;;4994826;27;95990;-52
2022/07/18 08:17:59;;;;;;;66.10;52.05;;;25.50;48.90;;;;;;5005063;27;95982;-53
2022/07/18 08:20:24;;;;;;;64.65;52.25;;;25.60;48.80;;;;;;4997852;27;96340;-55
2022/07/18 08:23:01;;;;;;;65.53;52.03;;;25.60;49.50;;;;;;4997291;27;96351;-56
2022/07/18 08:25:29;;;;;;;65.03;52.05;;;25.60;48.80;;;;;;4992268;27;95816;-54
2022/07/18 08:27:55;;;;;;;68.63;51.90;;;25.60;48.80;;;;;;4999191;27;95000;-56
2022/07/18 08:30:22;;;;;;;68.43;52.08;;;25.60;49.00;;;;;;4994800;27;94620;-54
2022/07/18 08:32:48;;;;;;;64.63;52.13;;;25.60;48.40;;;;;;4990082;27;96330;-51
2022/07/18 08:35:13;;;;;;;69.10;52.28;;;25.60;48.70;;;;;;4994078;27;95950;-55
2022/07/18 08:37:39;;;;;;;68.13;52.20;;;25.70;48.50;;;;;;5004907;27;97207;-57
2022/07/18 08:40:05;;;;;;;65.88;52.35;;;25.80;48.20;;;;;;4989288;27;96009;-55
2022/07/18 08:42:33;;;;;;;63.65;52.10;;;25.70;48.40;;;;;;4995789;27;95591;-56
2022/07/18 08:45:00;;;;;;;64.00;52.08;;;25.80;48.20;;;;;;5007635;27;97653;-56
2022/07/18 08:47:29;;;;;;;65.13;51.97;;;25.80;47.80;;;;;;5011791;27;98687;-56
2022/07/18 08:49:55;;;;;;;65.65;52.15;;;25.80;48.10;;;;;;5017045;27;95090;-53
2022/07/18 08:52:21;;;;;;;67.30;52.75;;;25.80;48.00;;;;;;5002672;27;99879;-54
2022/07/18 08:54:48;;;;;;;65.75;52.63;;;25.80;47.80;;;;;;4999874;27;97923;-56
2022/07/18 08:57:15;;;;;;;65.03;52.33;;;25.80;48.10;;;;;;4990798;27;96274;-58
2022/07/18 08:59:41;;;;;;;63.83;52.15;;;25.90;48.40;;;;;;5006216;27;95052;-58
2022/07/18 09:02:09;;;;;;;65.60;52.28;;;26.00;48.30;;;;;;4998296;27;99365;-59
2022/07/18 09:04:36;;;;;;;66.03;52.20;;;26.10;48.40;;;;;;4993616;27;97354;-58
2022/07/18 09:07:04;;;;;;;65.15;52.25;;;26.10;48.90;;;;;;5014436;27;101557;-57
2022/07/18 09:09:30;;;;;;;66.50;51.97;;;26.10;49.30;;;;;;5007850;27;95114;-59
2022/07/18 09:12:05;;;;;;;65.55;52.33;;;26.20;49.30;;;;;;4996595;27;97036;-58
2022/07/18 09:14:42;;;;;;;65.55;52.00;;;26.10;49.70;;;;;;5001513;27;95381;-56
2022/07/18 09:17:15;;;;;;;64.97;52.15;;;26.00;49.80;;;;;;5005139;27;97950;-58
2022/07/18 09:19:55;;;;;;;67.28;52.08;;;26.10;50.00;;;;;;5002335;27;95105;-58
2022/07/18 09:22:23;;;;;;;65.03;52.88;;;26.10;50.10;;;;;;4997937;27;95987;-57
2022/07/18 09:24:55;;;;;;;70.18;52.40;;;26.10;50.10;;;;;;4997909;27;96974;-58
2022/07/18 09:27:31;;;;;;;65.07;52.38;;;26.10;50.20;;;;;;5000638;27;102221;-53
2022/07/18 09:30:28;;;;;;;66.97;52.75;;;26.30;50.10;;;;;;5002644;27;95428;-57
2022/07/18 09:33:03;;;;;;;68.15;52.78;;;26.20;50.80;;;;;;5004489;27;95984;-56
2022/07/18 09:35:30;;;;;;;66.40;52.53;;;26.20;50.90;;;;;;5005686;27;96440;-52
2022/07/18 09:38:01;;;;;;;68.43;52.72;;;26.30;50.80;;;;;;5007106;27;96359;-56
2022/07/18 09:40:29;;;;;;;69.97;52.85;;;26.40;50.60;;;;;;5002853;27;94768;-56
2022/07/18 09:42:58;;;;;;;66.72;52.90;;;26.30;50.60;;;;;;5000931;27;95979;-57
2022/07/18 09:45:38;;;;;;;67.30;53.08;;;26.40;50.50;;;;;;4993401;27;100387;-59
2022/07/18 09:48:07;;;;;;;67.30;52.87;;;26.30;50.90;;;;;;5003160;27;97143;-59
2022/07/18 09:50:43;;;;;;;69.05;53.15;;;26.40;50.70;;;;;;5002570;27;95142;-62
2022/07/18 09:53:13;;;;;;;67.85;53.40;;;26.50;50.50;;;;;;4994231;27;96923;-49
2022/07/18 09:55:51;;;;;;;66.53;52.83;;;26.40;50.40;;;;;;5002946;27;99724;-52
2022/07/18 09:58:23;;;;;;;67.43;53.78;;;26.50;50.40;;;;;;5004733;27;94941;-55
2022/07/18 10:00:49;;;;;;;68.20;53.70;;;26.60;50.50;;;;;;5000284;27;95073;-59
2022/07/18 10:03:17;;;;;;;70.25;53.67;;;26.60;50.60;;;;;;4985991;27;95546;-59
2022/07/18 10:05:44;;;;;;;68.60;53.53;;;26.60;50.20;;;;;;5004098;27;94965;-58
2022/07/18 10:08:12;;;;;;;69.65;53.58;;;26.70;50.20;;;;;;4995553;27;99123;-58
2022/07/18 10:10:39;;;;;;;67.13;53.35;;;26.60;50.10;;;;;;5010514;27;94883;-57
2022/07/18 10:13:06;;;;;;;71.30;53.58;;;26.60;50.20;;;;;;5010188;27;95184;-58
2022/07/18 10:15:35;;;;;;;72.13;53.83;;;26.70;50.00;;;;;;5008558;27;96485;-58
2022/07/18 10:18:03;;;;;;;68.90;53.30;;;26.70;49.90;;;;;;5011042;27;100100;-59
2022/07/18 10:20:39;;;;;;;69.57;53.40;;;26.80;49.90;;;;;;5016978;27;95729;-56
2022/07/18 10:23:15;;;;;;;70.43;53.42;;;26.80;49.80;;;;;;4989599;27;98582;-58
2022/07/18 10:25:41;;;;;;;66.80;53.53;;;26.80;49.70;;;;;;5002785;27;95695;-58
2022/07/18 10:28:14;;;;;;;69.32;53.30;;;26.80;49.70;;;;;;5001810;27;96696;-57
2022/07/18 10:30:49;;;;;;;71.90;53.45;;;26.80;49.70;;;;;;5011243;27;94721;-55
2022/07/18 10:33:40;;;;;;;67.97;53.58;;;26.80;49.70;;;;;;5008744;27;94880;-58
2022/07/18 10:36:09;;;;;;;67.65;53.60;;;26.80;49.70;;;;;;5014099;27;96306;-58
2022/07/18 10:38:36;;;;;;;69.57;52.95;;;26.80;49.70;;;;;;5001497;27;95371;-58
2022/07/18 10:41:12;;;;;;;67.70;53.30;;;26.90;49.70;;;;;;5004046;27;98692;-58
2022/07/18 10:43:43;;;;;;;69.18;53.40;;;26.90;49.70;;;;;;5010730;27;98842;-58
2022/07/18 10:46:10;;;;;;;67.03;53.22;;;26.90;49.70;;;;;;5003039;27;95688;-57
2022/07/18 10:48:40;;;;;;;68.03;53.25;;;26.90;49.70;;;;;;5014250;27;100081;-58
2022/07/18 10:51:10;;;;;;;68.05;53.60;;;26.90;49.60;;;;;;5008300;27;95261;-58
2022/07/18 10:54:07;;;;;;;66.00;53.03;;;26.90;49.60;;;;;;5004902;27;95342;-58
2022/07/18 10:56:35;;;;;;;67.63;53.20;;;26.90;49.50;;;;;;4992721;27;95235;-58
2022/07/18 10:59:16;;;;;;;71.20;53.42;;;26.90;49.50;;;;;;4983841;27;96664;-57
2022/07/18 11:01:50;;;;;;;67.70;53.13;;;27.00;49.50;;;;;;5003287;27;97307;-57
2022/07/18 11:04:32;;;;;;;69.75;53.47;;;27.00;49.50;;;;;;5010361;27;97065;-51
2022/07/18 11:07:11;;;;;;;67.00;53.22;;;27.00;49.50;;;;;;5012062;27;96027;-58
2022/07/18 11:09:41;;;;;;;68.95;53.50;;;27.00;49.50;;;;;;5006064;27;96110;-58
2022/07/18 11:12:31;;;;;;;66.03;53.22;;;27.00;49.50;;;;;;5007725;27;102984;-58
2022/07/18 11:15:46;;;;;;;67.78;52.90;;;26.70;49.90;;;;;;5001369;27;100739;-59
2022/07/18 11:18:11;;;;;;;66.43;53.20;;;26.90;49.90;;;;;;4986651;27;96895;-58
2022/07/18 11:20:41;;;;;;;67.63;53.63;;;27.00;49.70;;;;;;5000727;27;100710;-56
2022/07/18 11:23:17;;;;;;;68.28;53.22;;;26.90;49.80;;;;;;5009393;27;99318;-56
2022/07/18 11:25:45;;;;;;;67.38;53.20;;;26.90;49.60;;;;;;4994060;27;97458;-59
2022/07/18 11:28:11;;;;;;;68.60;53.17;;;26.90;49.70;;;;;;5009781;27;94813;-58
2022/07/18 11:30:38;;;;;;;67.30;53.38;;;27.00;49.60;;;;;;5010262;27;98177;-58
2022/07/18 11:33:05;;;;;;;67.43;53.42;;;27.10;49.50;;;;;;5005677;27;94692;-58
2022/07/18 11:35:31;;;;;;;68.80;53.30;;;27.10;49.50;;;;;;5016766;27;96654;-58
2022/07/18 11:38:03;;;;;;;66.72;53.38;;;27.10;49.50;;;;;;5000655;27;99437;-58
2022/07/18 11:40:29;;;;;;;65.90;53.03;;;27.10;49.40;;;;;;5012358;27;95283;-57
2022/07/18 11:42:56;;;;;;;68.00;53.33;;;27.10;49.40;;;;;;5006024;27;95240;-58
2022/07/18 11:45:22;;;;;;;66.82;52.75;;;27.10;49.60;;;;;;4996192;27;96903;-55
2022/07/18 11:47:50;;;;;;;66.18;53.10;;;27.10;49.50;;;;;;5005533;27;97262;-54
2022/07/18 11:50:17;;;;;;;67.57;53.40;;;27.00;49.80;;;;;;4991183;27;95254;-58
2022/07/18 11:52:44;;;;;;;67.13;53.47;;;27.00;49.80;;;;;;4999260;27;96440;-58
2022/07/18 11:55:13;;;;;;;66.40;53.33;;;27.00;49.90;;;;;;4965965;27;97399;-57
2022/07/18 11:57:40;;;;;;;66.70;53.35;;;27.10;50.00;;;;;;5006407;27;97087;-60
2022/07/18 12:00:17;;;;;;;67.10;53.88;;;27.10;50.20;;;;;;5006757;27;97082;-60
2022/07/18 12:03:10;;;;;;;66.93;53.05;;;27.20;50.30;;;;;;4995007;27;94752;-59
2022/07/18 12:05:39;;;;;;;67.13;53.03;;;27.10;50.10;;;;;;5003283;27;95241;-59
2022/07/18 12:08:34;;;;;;;65.80;53.63;;;27.10;50.40;;;;;;5006244;27;100987;-59
2022/07/18 12:11:08;;;;;;;67.38;53.70;;;26.90;50.90;;;;;;5002700;27;96590;-59
2022/07/18 12:13:55;;;;;;;68.32;53.55;;;27.20;50.80;;;;;;4998903;27;97650;-60
2022/07/18 12:16:35;;;;;;;70.22;53.58;;;27.30;50.80;;;;;;4994678;27;95325;-60
2022/07/18 12:19:24;;;;;;;68.30;53.40;;;27.20;50.90;;;;;;5012293;27;94859;-54
2022/07/18 12:21:56;;;;;;;68.97;53.30;;;27.30;50.70;;;;;;5003868;27;100722;-60
2022/07/18 12:24:33;;;;;;;69.93;53.40;;;27.30;50.90;;;;;;5004636;27;95165;-61
2022/07/18 12:27:08;;;;;;;68.85;53.88;;;27.20;51.00;;;;;;5005794;27;97095;-59
2022/07/18 12:29:59;;;;;;;73.50;54.13;;;27.30;50.90;;;;;;5006941;27;96430;-55
2022/07/18 12:32:29;;;;;;;78.72;53.90;;;27.30;50.90;;;;;;5002267;27;96735;-54
2022/07/18 12:35:02;;;;;;;76.10;53.65;;;27.40;51.20;;;;;;4992969;27;97464;-57